sensor_id;sensor_type;location;lat;lon;timestamp;pressure;altitude;pressure_sealevel;temperature;humidity
74794;BME280;63320;50.768;6.724;2023-07-31T00:00:33;99915.66;;;17.67;79.19
74794;BME280;63320;50.768;6.724;2023-07-31T00:02:58;99911.22;;;17.67;79.56
74794;BME280;63320;50.768;6.724;2023-07-31T00:05:23;99912.91;;;17.68;78.96
74794;BME280;63320;50.768;6.724;2023-07-31T00:07:49;99931.75;;;17.65;78.04
74794;BME280;63320;50.768;6.724;2023-07-31T00:10:14;99911.78;;;17.71;77.46
74794;BME280;63320;50.768;6.724;2023-07-31T00:12:42;99914.22;;;17.74;77.41
74794;BME280;63320;50.768;6.724;2023-07-31T00:15:09;99906.00;;;17.66;77.27
74794;BME280;63320;50.768;6.724;2023-07-31T00:17:36;99918.22;;;17.68;77.12
74794;BME280;63320;50.768;6.724;2023-07-31T00:20:01;99908.94;;;17.63;77.60
74794;BME280;63320;50.768;6.724;2023-07-31T00:22:27;99910.63;;;17.64;77.93
74794;BME280;63320;50.768;6.724;2023-07-31T00:24:52;99902.88;;;17.60;77.82
74794;BME280;63320;50.768;6.724;2023-07-31T00:27:17;99907.72;;;17.55;78.10
74794;BME280;63320;50.768;6.724;2023-07-31T00:29:43;99913.66;;;17.59;78.51
74794;BME280;63320;50.768;6.724;2023-07-31T00:32:08;99903.00;;;17.59;78.60
74794;BME280;63320;50.768;6.724;2023-07-31T00:34:35;99908.66;;;17.66;78.41
74794;BME280;63320;50.768;6.724;2023-07-31T00:37:00;99909.69;;;17.53;79.09
74794;BME280;63320;50.768;6.724;2023-07-31T00:39:25;99911.13;;;17.57;79.32
74794;BME280;63320;50.768;6.724;2023-07-31T00:41:51;99912.72;;;17.49;79.84
74794;BME280;63320;50.768;6.724;2023-07-31T00:44:16;99911.38;;;17.54;79.88
74794;BME280;63320;50.768;6.724;2023-07-31T00:46:42;99904.66;;;17.39;80.80
74794;BME280;63320;50.768;6.724;2023-07-31T00:49:08;99905.13;;;17.44;80.47
74794;BME280;63320;50.768;6.724;2023-07-31T00:51:35;99906.56;;;17.48;80.04
74794;BME280;63320;50.768;6.724;2023-07-31T00:54:01;99915.88;;;17.43;80.08
74794;BME280;63320;50.768;6.724;2023-07-31T00:56:27;99910.84;;;17.60;78.77
74794;BME280;63320;50.768;6.724;2023-07-31T00:58:53;99903.25;;;17.56;78.27
74794;BME280;63320;50.768;6.724;2023-07-31T01:01:19;99891.19;;;17.52;78.88
74794;BME280;63320;50.768;6.724;2023-07-31T01:03:45;99884.31;;;17.49;80.94
74794;BME280;63320;50.768;6.724;2023-07-31T01:06:14;99889.78;;;17.48;81.24
74794;BME280;63320;50.768;6.724;2023-07-31T01:08:44;99886.41;;;17.34;82.25
74794;BME280;63320;50.768;6.724;2023-07-31T01:11:16;99883.56;;;17.15;84.20
74794;BME280;63320;50.768;6.724;2023-07-31T01:13:44;99884.03;;;17.20;84.37
74794;BME280;63320;50.768;6.724;2023-07-31T01:16:09;99882.47;;;17.18;84.85
74794;BME280;63320;50.768;6.724;2023-07-31T01:18:35;99875.63;;;17.04;86.19
74794;BME280;63320;50.768;6.724;2023-07-31T01:21:06;99874.63;;;17.05;85.35
74794;BME280;63320;50.768;6.724;2023-07-31T01:23:55;99879.47;;;17.00;85.74
74794;BME280;63320;50.768;6.724;2023-07-31T01:26:30;99883.47;;;17.05;85.03
74794;BME280;63320;50.768;6.724;2023-07-31T01:29:02;99870.13;;;17.17;83.61
74794;BME280;63320;50.768;6.724;2023-07-31T01:31:29;99873.25;;;17.22;83.33
74794;BME280;63320;50.768;6.724;2023-07-31T01:33:57;99878.50;;;17.12;83.43
74794;BME280;63320;50.768;6.724;2023-07-31T01:36:23;99884.19;;;17.07;83.46
74794;BME280;63320;50.768;6.724;2023-07-31T01:38:49;99868.22;;;17.19;82.87
74794;BME280;63320;50.768;6.724;2023-07-31T01:41:16;99877.63;;;17.12;83.16
74794;BME280;63320;50.768;6.724;2023-07-31T01:43:43;99877.03;;;17.19;83.19
74794;BME280;63320;50.768;6.724;2023-07-31T01:46:08;99869.94;;;17.08;83.97
74794;BME280;63320;50.768;6.724;2023-07-31T01:48:33;99870.66;;;17.11;83.58
74794;BME280;63320;50.768;6.724;2023-07-31T01:51:00;99868.97;;;17.09;83.32
74794;BME280;63320;50.768;6.724;2023-07-31T01:53:25;99863.63;;;17.21;81.75
74794;BME280;63320;50.768;6.724;2023-07-31T01:55:51;99868.81;;;17.22;81.16
74794;BME280;63320;50.768;6.724;2023-07-31T01:58:16;99853.59;;;17.24;81.11
74794;BME280;63320;50.768;6.724;2023-07-31T02:00:42;99859.00;;;17.34;79.90
74794;BME280;63320;50.768;6.724;2023-07-31T02:03:08;99864.09;;;17.26;79.85
74794;BME280;63320;50.768;6.724;2023-07-31T02:05:33;99859.00;;;17.34;79.36
74794;BME280;63320;50.768;6.724;2023-07-31T02:07:58;99847.84;;;17.40;79.05
74794;BME280;63320;50.768;6.724;2023-07-31T02:10:24;99843.06;;;17.34;79.52
74794;BME280;63320;50.768;6.724;2023-07-31T02:12:49;99852.00;;;17.33;79.58
74794;BME280;63320;50.768;6.724;2023-07-31T02:15:14;99846.31;;;17.26;80.09
74794;BME280;63320;50.768;6.724;2023-07-31T02:17:41;99849.44;;;17.31;79.54
74794;BME280;63320;50.768;6.724;2023-07-31T02:20:07;99844.72;;;17.35;79.86
74794;BME280;63320;50.768;6.724;2023-07-31T02:22:33;99837.03;;;17.32;79.74
74794;BME280;63320;50.768;6.724;2023-07-31T02:24:58;99833.88;;;17.27;80.27
74794;BME280;63320;50.768;6.724;2023-07-31T02:27:23;99831.81;;;17.30;80.09
74794;BME280;63320;50.768;6.724;2023-07-31T02:29:49;99830.97;;;17.30;80.32
74794;BME280;63320;50.768;6.724;2023-07-31T02:32:14;99833.41;;;17.33;80.73
74794;BME280;63320;50.768;6.724;2023-07-31T02:34:41;99825.44;;;17.22;80.78
74794;BME280;63320;50.768;6.724;2023-07-31T02:37:06;99825.91;;;17.27;80.50
74794;BME280;63320;50.768;6.724;2023-07-31T02:39:31;99826.78;;;17.27;80.46
74794;BME280;63320;50.768;6.724;2023-07-31T02:41:57;99820.72;;;17.25;80.84
74794;BME280;63320;50.768;6.724;2023-07-31T02:44:22;99819.66;;;17.28;80.55
74794;BME280;63320;50.768;6.724;2023-07-31T02:46:47;99815.03;;;17.30;80.47
74794;BME280;63320;50.768;6.724;2023-07-31T02:49:13;99823.22;;;17.38;80.40
74794;BME280;63320;50.768;6.724;2023-07-31T02:51:39;99813.88;;;17.23;81.20
74794;BME280;63320;50.768;6.724;2023-07-31T02:54:05;99816.25;;;17.26;81.20
74794;BME280;63320;50.768;6.724;2023-07-31T02:56:30;99811.66;;;17.28;80.85
74794;BME280;63320;50.768;6.724;2023-07-31T02:58:55;99816.16;;;17.27;80.79
74794;BME280;63320;50.768;6.724;2023-07-31T03:01:21;99820.50;;;17.28;80.54
74794;BME280;63320;50.768;6.724;2023-07-31T03:03:46;99821.56;;;17.37;79.88
74794;BME280;63320;50.768;6.724;2023-07-31T03:06:11;99808.50;;;17.34;79.77
74794;BME280;63320;50.768;6.724;2023-07-31T03:08:38;99807.38;;;17.37;79.52
74794;BME280;63320;50.768;6.724;2023-07-31T03:11:03;99804.34;;;17.41;79.43
74794;BME280;63320;50.768;6.724;2023-07-31T03:13:28;99803.28;;;17.44;79.15
74794;BME280;63320;50.768;6.724;2023-07-31T03:15:54;99806.31;;;17.39;79.20
74794;BME280;63320;50.768;6.724;2023-07-31T03:18:19;99808.59;;;17.44;78.61
74794;BME280;63320;50.768;6.724;2023-07-31T03:20:44;99799.72;;;17.54;78.16
74794;BME280;63320;50.768;6.724;2023-07-31T03:23:10;99799.78;;;17.43;78.65
74794;BME280;63320;50.768;6.724;2023-07-31T03:25:36;99792.50;;;17.45;78.73
74794;BME280;63320;50.768;6.724;2023-07-31T03:28:02;99789.00;;;17.45;78.89
74794;BME280;63320;50.768;6.724;2023-07-31T03:30:27;99790.97;;;17.43;78.90
74794;BME280;63320;50.768;6.724;2023-07-31T03:32:52;99781.41;;;17.40;78.92
74794;BME280;63320;50.768;6.724;2023-07-31T03:35:18;99782.53;;;17.38;79.07
74794;BME280;63320;50.768;6.724;2023-07-31T03:37:43;99776.81;;;17.42;79.25
74794;BME280;63320;50.768;6.724;2023-07-31T03:40:10;99774.88;;;17.44;79.15
74794;BME280;63320;50.768;6.724;2023-07-31T03:42:37;99780.50;;;17.51;78.50
74794;BME280;63320;50.768;6.724;2023-07-31T03:45:03;99769.41;;;17.46;78.85
74794;BME280;63320;50.768;6.724;2023-07-31T03:47:28;99771.22;;;17.45;78.78
74794;BME280;63320;50.768;6.724;2023-07-31T03:49:54;99771.50;;;17.42;78.66
74794;BME280;63320;50.768;6.724;2023-07-31T03:52:19;99768.84;;;17.42;78.88
74794;BME280;63320;50.768;6.724;2023-07-31T03:54:44;99770.63;;;17.42;78.70
74794;BME280;63320;50.768;6.724;2023-07-31T03:57:10;99764.38;;;17.43;78.77
74794;BME280;63320;50.768;6.724;2023-07-31T03:59:36;99762.03;;;17.49;78.61
74794;BME280;63320;50.768;6.724;2023-07-31T04:02:02;99766.31;;;17.41;78.55
74794;BME280;63320;50.768;6.724;2023-07-31T04:04:27;99760.00;;;17.42;78.64
74794;BME280;63320;50.768;6.724;2023-07-31T04:06:53;99757.56;;;17.50;78.46
74794;BME280;63320;50.768;6.724;2023-07-31T04:09:18;99766.50;;;17.49;78.15
74794;BME280;63320;50.768;6.724;2023-07-31T04:11:43;99764.94;;;17.46;78.32
74794;BME280;63320;50.768;6.724;2023-07-31T04:14:09;99755.88;;;17.49;78.02
74794;BME280;63320;50.768;6.724;2023-07-31T04:16:35;99760.06;;;17.51;78.20
74794;BME280;63320;50.768;6.724;2023-07-31T04:19:01;99763.72;;;17.50;77.76
74794;BME280;63320;50.768;6.724;2023-07-31T04:21:26;99757.63;;;17.59;77.10
74794;BME280;63320;50.768;6.724;2023-07-31T04:23:51;99759.13;;;17.52;77.88
74794;BME280;63320;50.768;6.724;2023-07-31T04:26:17;99756.25;;;17.44;78.27
74794;BME280;63320;50.768;6.724;2023-07-31T04:28:42;99755.75;;;17.50;78.46
74794;BME280;63320;50.768;6.724;2023-07-31T04:31:07;99746.34;;;17.46;78.30
74794;BME280;63320;50.768;6.724;2023-07-31T04:33:34;99757.56;;;17.50;78.39
74794;BME280;63320;50.768;6.724;2023-07-31T04:35:59;99753.28;;;17.58;77.47
74794;BME280;63320;50.768;6.724;2023-07-31T04:38:25;99748.81;;;17.59;77.80
74794;BME280;63320;50.768;6.724;2023-07-31T04:40:50;99748.88;;;17.69;77.55
74794;BME280;63320;50.768;6.724;2023-07-31T04:43:16;99738.38;;;17.67;77.56
74794;BME280;63320;50.768;6.724;2023-07-31T04:45:44;99743.94;;;17.64;77.85
74794;BME280;63320;50.768;6.724;2023-07-31T04:48:10;99738.19;;;17.59;77.70
74794;BME280;63320;50.768;6.724;2023-07-31T04:50:36;99746.47;;;17.66;77.52
74794;BME280;63320;50.768;6.724;2023-07-31T04:53:02;99738.38;;;17.67;77.36
74794;BME280;63320;50.768;6.724;2023-07-31T04:55:27;99733.06;;;17.67;77.23
74794;BME280;63320;50.768;6.724;2023-07-31T04:57:52;99729.06;;;17.73;77.14
74794;BME280;63320;50.768;6.724;2023-07-31T05:00:18;99727.09;;;17.75;76.89
74794;BME280;63320;50.768;6.724;2023-07-31T05:02:43;99725.72;;;17.80;76.37
74794;BME280;63320;50.768;6.724;2023-07-31T05:05:08;99731.88;;;17.81;76.14
74794;BME280;63320;50.768;6.724;2023-07-31T05:07:35;99724.06;;;17.79;76.33
74794;BME280;63320;50.768;6.724;2023-07-31T05:10:00;99714.41;;;17.78;76.31
74794;BME280;63320;50.768;6.724;2023-07-31T05:12:26;99719.44;;;17.81;76.18
74794;BME280;63320;50.768;6.724;2023-07-31T05:14:51;99720.41;;;17.80;76.44
74794;BME280;63320;50.768;6.724;2023-07-31T05:17:16;99716.78;;;17.81;76.62
74794;BME280;63320;50.768;6.724;2023-07-31T05:19:42;99709.22;;;17.86;76.46
74794;BME280;63320;50.768;6.724;2023-07-31T05:22:07;99706.72;;;17.85;76.44
74794;BME280;63320;50.768;6.724;2023-07-31T05:24:34;99712.63;;;17.89;76.55
74794;BME280;63320;50.768;6.724;2023-07-31T05:26:59;99719.47;;;17.91;76.27
74794;BME280;63320;50.768;6.724;2023-07-31T05:29:25;99712.34;;;17.92;76.11
74794;BME280;63320;50.768;6.724;2023-07-31T05:31:50;99708.16;;;17.89;76.03
74794;BME280;63320;50.768;6.724;2023-07-31T05:34:15;99695.28;;;17.94;76.03
74794;BME280;63320;50.768;6.724;2023-07-31T05:36:41;99696.13;;;17.95;75.90
74794;BME280;63320;50.768;6.724;2023-07-31T05:39:06;99695.28;;;17.94;76.01
74794;BME280;63320;50.768;6.724;2023-07-31T05:41:33;99684.66;;;17.94;76.00
74794;BME280;63320;50.768;6.724;2023-07-31T05:43:58;99682.38;;;17.90;76.33
74794;BME280;63320;50.768;6.724;2023-07-31T05:46:23;99686.13;;;17.87;76.45
74794;BME280;63320;50.768;6.724;2023-07-31T05:48:49;99683.91;;;17.92;76.45
74794;BME280;63320;50.768;6.724;2023-07-31T05:51:14;99677.66;;;17.93;76.55
74794;BME280;63320;50.768;6.724;2023-07-31T05:53:39;99683.06;;;17.92;76.70
74794;BME280;63320;50.768;6.724;2023-07-31T05:56:05;99674.53;;;17.88;76.99
74794;BME280;63320;50.768;6.724;2023-07-31T05:58:31;99673.97;;;17.84;77.43
74794;BME280;63320;50.768;6.724;2023-07-31T06:00:57;99675.63;;;17.85;78.31
74794;BME280;63320;50.768;6.724;2023-07-31T06:03:22;99680.44;;;17.71;79.42
74794;BME280;63320;50.768;6.724;2023-07-31T06:05:47;99682.22;;;17.60;80.96
74794;BME280;63320;50.768;6.724;2023-07-31T06:08:13;99681.06;;;17.53;82.52
74794;BME280;63320;50.768;6.724;2023-07-31T06:10:38;99672.50;;;17.29;84.13
74794;BME280;63320;50.768;6.724;2023-07-31T06:13:03;99669.72;;;17.30;84.90
74794;BME280;63320;50.768;6.724;2023-07-31T06:15:30;99662.97;;;17.26;85.40
74794;BME280;63320;50.768;6.724;2023-07-31T06:17:55;99664.28;;;17.32;85.85
74794;BME280;63320;50.768;6.724;2023-07-31T06:20:21;99654.22;;;17.35;86.04
74794;BME280;63320;50.768;6.724;2023-07-31T06:22:46;99649.41;;;17.50;86.31
74794;BME280;63320;50.768;6.724;2023-07-31T06:25:11;99654.47;;;17.53;85.81
74794;BME280;63320;50.768;6.724;2023-07-31T06:27:37;99651.38;;;17.48;85.50
74794;BME280;63320;50.768;6.724;2023-07-31T06:30:03;99649.28;;;17.52;85.41
74794;BME280;63320;50.768;6.724;2023-07-31T06:32:30;99645.72;;;17.63;84.99
74794;BME280;63320;50.768;6.724;2023-07-31T06:34:55;99640.09;;;17.66;84.63
74794;BME280;63320;50.768;6.724;2023-07-31T06:37:20;99637.19;;;17.69;84.36
74794;BME280;63320;50.768;6.724;2023-07-31T06:39:46;99645.25;;;17.78;83.48
74794;BME280;63320;50.768;6.724;2023-07-31T06:42:11;99637.03;;;17.91;82.67
74794;BME280;63320;50.768;6.724;2023-07-31T06:44:36;99648.78;;;17.89;82.97
74794;BME280;63320;50.768;6.724;2023-07-31T06:47:02;99646.16;;;17.98;82.55
74794;BME280;63320;50.768;6.724;2023-07-31T06:49:28;99639.84;;;17.99;82.09
74794;BME280;63320;50.768;6.724;2023-07-31T06:51:53;99642.38;;;18.01;82.15
74794;BME280;63320;50.768;6.724;2023-07-31T06:54:19;99642.25;;;18.02;81.35
74794;BME280;63320;50.768;6.724;2023-07-31T06:56:44;99633.00;;;18.06;81.41
74794;BME280;63320;50.768;6.724;2023-07-31T06:59:09;99633.44;;;18.11;80.75
74794;BME280;63320;50.768;6.724;2023-07-31T07:01:35;99634.41;;;18.10;80.36
74794;BME280;63320;50.768;6.724;2023-07-31T07:04:00;99624.50;;;18.13;79.81
74794;BME280;63320;50.768;6.724;2023-07-31T07:06:27;99631.22;;;18.17;79.30
74794;BME280;63320;50.768;6.724;2023-07-31T07:08:52;99624.78;;;18.19;77.88
74794;BME280;63320;50.768;6.724;2023-07-31T07:11:18;99630.13;;;18.19;78.32
74794;BME280;63320;50.768;6.724;2023-07-31T07:13:43;99631.09;;;18.18;78.77
74794;BME280;63320;50.768;6.724;2023-07-31T07:16:08;99630.94;;;18.20;78.66
74794;BME280;63320;50.768;6.724;2023-07-31T07:18:34;99630.34;;;18.06;79.01
74794;BME280;63320;50.768;6.724;2023-07-31T07:20:59;99645.19;;;17.99;78.12
74794;BME280;63320;50.768;6.724;2023-07-31T07:23:26;99640.69;;;18.00;78.47
74794;BME280;63320;50.768;6.724;2023-07-31T07:25:51;99645.59;;;17.95;79.23
74794;BME280;63320;50.768;6.724;2023-07-31T07:28:16;99647.66;;;17.91;80.05
74794;BME280;63320;50.768;6.724;2023-07-31T07:30:42;99647.06;;;17.78;79.80
74794;BME280;63320;50.768;6.724;2023-07-31T07:33:07;99661.72;;;17.72;80.61
74794;BME280;63320;50.768;6.724;2023-07-31T07:35:33;99636.91;;;17.72;80.19
74794;BME280;63320;50.768;6.724;2023-07-31T07:37:58;99647.97;;;17.67;80.00
74794;BME280;63320;50.768;6.724;2023-07-31T07:40:25;99641.50;;;17.60;81.17
74794;BME280;63320;50.768;6.724;2023-07-31T07:42:50;99640.66;;;17.59;81.35
74794;BME280;63320;50.768;6.724;2023-07-31T07:45:16;99638.19;;;17.47;81.68
74794;BME280;63320;50.768;6.724;2023-07-31T07:47:41;99646.75;;;17.50;82.40
74794;BME280;63320;50.768;6.724;2023-07-31T07:50:07;99628.72;;;17.54;83.16
74794;BME280;63320;50.768;6.724;2023-07-31T07:52:33;99633.47;;;17.50;81.09
74794;BME280;63320;50.768;6.724;2023-07-31T07:54:58;99631.00;;;17.58;80.33
74794;BME280;63320;50.768;6.724;2023-07-31T07:57:25;99629.31;;;17.57;80.31
74794;BME280;63320;50.768;6.724;2023-07-31T07:59:50;99615.31;;;17.55;78.86
74794;BME280;63320;50.768;6.724;2023-07-31T08:02:16;99618.94;;;17.54;79.29
74794;BME280;63320;50.768;6.724;2023-07-31T08:04:41;99630.81;;;17.50;79.66
74794;BME280;63320;50.768;6.724;2023-07-31T08:07:06;99614.16;;;17.48;80.56
74794;BME280;63320;50.768;6.724;2023-07-31T08:09:32;99615.31;;;17.55;80.17
74794;BME280;63320;50.768;6.724;2023-07-31T08:11:57;99610.28;;;17.52;80.09
74794;BME280;63320;50.768;6.724;2023-07-31T08:14:24;99602.44;;;17.60;79.92
74794;BME280;63320;50.768;6.724;2023-07-31T08:16:49;99600.38;;;17.64;80.32
74794;BME280;63320;50.768;6.724;2023-07-31T08:19:14;99599.25;;;17.67;80.45
74794;BME280;63320;50.768;6.724;2023-07-31T08:21:40;99598.81;;;17.61;80.06
74794;BME280;63320;50.768;6.724;2023-07-31T08:24:05;99596.47;;;17.68;81.05
74794;BME280;63320;50.768;6.724;2023-07-31T08:26:30;99597.25;;;17.80;79.95
74794;BME280;63320;50.768;6.724;2023-07-31T08:28:56;99596.84;;;17.84;78.61
74794;BME280;63320;50.768;6.724;2023-07-31T08:31:22;99594.19;;;17.94;77.47
74794;BME280;63320;50.768;6.724;2023-07-31T08:33:48;99582.88;;;18.02;76.85
74794;BME280;63320;50.768;6.724;2023-07-31T08:36:13;99579.97;;;18.15;77.07
74794;BME280;63320;50.768;6.724;2023-07-31T08:38:38;99585.72;;;18.20;75.76
74794;BME280;63320;50.768;6.724;2023-07-31T08:41:04;99583.88;;;18.20;74.88
74794;BME280;63320;50.768;6.724;2023-07-31T08:43:30;99586.28;;;18.23;73.83
74794;BME280;63320;50.768;6.724;2023-07-31T08:45:56;99593.97;;;18.17;74.64
74794;BME280;63320;50.768;6.724;2023-07-31T08:48:23;99609.66;;;18.20;72.82
74794;BME280;63320;50.768;6.724;2023-07-31T08:50:49;99609.91;;;18.17;73.40
74794;BME280;63320;50.768;6.724;2023-07-31T08:53:14;99582.47;;;18.16;72.67
74794;BME280;63320;50.768;6.724;2023-07-31T08:55:40;99591.44;;;18.15;73.20
74794;BME280;63320;50.768;6.724;2023-07-31T08:58:05;99597.03;;;18.22;72.31
74794;BME280;63320;50.768;6.724;2023-07-31T09:00:31;99599.28;;;18.26;72.32
74794;BME280;63320;50.768;6.724;2023-07-31T09:03:00;99595.22;;;18.32;72.50
74794;BME280;63320;50.768;6.724;2023-07-31T09:05:29;99602.25;;;18.33;72.13
74794;BME280;63320;50.768;6.724;2023-07-31T09:07:55;99596.22;;;18.31;72.27
74794;BME280;63320;50.768;6.724;2023-07-31T09:10:21;99602.38;;;18.31;71.71
74794;BME280;63320;50.768;6.724;2023-07-31T09:12:48;99601.44;;;18.32;70.68
74794;BME280;63320;50.768;6.724;2023-07-31T09:15:14;99608.28;;;18.35;70.75
74794;BME280;63320;50.768;6.724;2023-07-31T09:17:40;99601.56;;;18.41;70.67
74794;BME280;63320;50.768;6.724;2023-07-31T09:20:15;99602.81;;;18.46;70.82
74794;BME280;63320;50.768;6.724;2023-07-31T09:22:43;99595.81;;;18.55;71.06
74794;BME280;63320;50.768;6.724;2023-07-31T09:25:15;99593.72;;;18.58;70.68
74794;BME280;63320;50.768;6.724;2023-07-31T09:27:48;99593.00;;;18.56;71.10
74794;BME280;63320;50.768;6.724;2023-07-31T09:30:14;99597.09;;;18.60;70.30
74794;BME280;63320;50.768;6.724;2023-07-31T09:32:40;99595.25;;;18.61;69.49
74794;BME280;63320;50.768;6.724;2023-07-31T09:35:13;99580.84;;;18.63;69.81
74794;BME280;63320;50.768;6.724;2023-07-31T09:37:48;99589.13;;;18.70;69.45
74794;BME280;63320;50.768;6.724;2023-07-31T09:40:25;99588.13;;;18.81;68.90
74794;BME280;63320;50.768;6.724;2023-07-31T09:42:50;99573.97;;;18.90;68.83
74794;BME280;63320;50.768;6.724;2023-07-31T09:45:18;99562.03;;;19.04;68.89
74794;BME280;63320;50.768;6.724;2023-07-31T09:47:46;99569.69;;;19.17;68.28
74794;BME280;63320;50.768;6.724;2023-07-31T09:50:11;99559.31;;;19.23;67.38
74794;BME280;63320;50.768;6.724;2023-07-31T09:52:38;99563.19;;;19.38;67.67
74794;BME280;63320;50.768;6.724;2023-07-31T09:55:05;99556.81;;;19.49;67.63
74794;BME280;63320;50.768;6.724;2023-07-31T09:57:31;99547.66;;;19.61;67.43
74794;BME280;63320;50.768;6.724;2023-07-31T09:59:58;99556.50;;;19.62;66.59
74794;BME280;63320;50.768;6.724;2023-07-31T10:02:24;99576.41;;;19.67;66.11
74794;BME280;63320;50.768;6.724;2023-07-31T10:04:50;99559.72;;;19.65;66.14
74794;BME280;63320;50.768;6.724;2023-07-31T10:07:17;99566.03;;;19.64;65.63
74794;BME280;63320;50.768;6.724;2023-07-31T10:09:43;99546.38;;;19.65;65.46
74794;BME280;63320;50.768;6.724;2023-07-31T10:12:12;99552.00;;;19.62;65.64
74794;BME280;63320;50.768;6.724;2023-07-31T10:14:39;99553.66;;;19.73;66.06
74794;BME280;63320;50.768;6.724;2023-07-31T10:17:06;99559.41;;;19.96;66.06
74794;BME280;63320;50.768;6.724;2023-07-31T10:19:34;99565.78;;;19.85;65.21
74794;BME280;63320;50.768;6.724;2023-07-31T10:22:00;99540.44;;;19.99;65.46
74794;BME280;63320;50.768;6.724;2023-07-31T10:24:27;99551.03;;;20.09;nan
74794;BME280;63320;50.768;6.724;2023-07-31T10:26:53;99581.31;;;20.17;65.16
74794;BME280;63320;50.768;6.724;2023-07-31T10:29:23;99564.91;;;20.12;65.18
74794;BME280;63320;50.768;6.724;2023-07-31T10:31:50;99559.72;;;20.11;65.37
74794;BME280;63320;50.768;6.724;2023-07-31T10:34:17;99563.31;;;20.20;65.68
74794;BME280;63320;50.768;6.724;2023-07-31T10:36:43;99540.34;;;20.27;65.65
74794;BME280;63320;50.768;6.724;2023-07-31T10:39:33;99546.47;;;20.19;65.89
74794;BME280;63320;50.768;6.724;2023-07-31T10:41:59;99559.50;;;20.04;66.26
74794;BME280;63320;50.768;6.724;2023-07-31T10:44:26;99556.63;;;19.88;66.16
74794;BME280;63320;50.768;6.724;2023-07-31T10:46:54;99563.66;;;19.89;66.96
74794;BME280;63320;50.768;6.724;2023-07-31T10:49:21;99571.00;;;19.77;66.97
74794;BME280;63320;50.768;6.724;2023-07-31T10:51:47;99566.84;;;19.75;66.94
74794;BME280;63320;50.768;6.724;2023-07-31T10:54:13;99577.97;;;19.88;67.12
74794;BME280;63320;50.768;6.724;2023-07-31T10:56:40;99557.66;;;19.59;67.34
74794;BME280;63320;50.768;6.724;2023-07-31T10:59:09;99550.88;;;19.65;68.55
74794;BME280;63320;50.768;6.724;2023-07-31T11:01:51;99558.31;;;19.61;70.30
74794;BME280;63320;50.768;6.724;2023-07-31T11:04:21;99560.56;;;19.56;70.15
74794;BME280;63320;50.768;6.724;2023-07-31T11:06:55;99554.53;;;19.64;69.58
74794;BME280;63320;50.768;6.724;2023-07-31T11:09:20;99585.16;;;19.50;69.13
74794;BME280;63320;50.768;6.724;2023-07-31T11:11:46;99566.38;;;19.42;70.19
74794;BME280;63320;50.768;6.724;2023-07-31T11:14:11;99561.94;;;19.33;70.27
74794;BME280;63320;50.768;6.724;2023-07-31T11:16:37;99544.22;;;19.41;70.38
74794;BME280;63320;50.768;6.724;2023-07-31T11:19:08;99550.13;;;19.73;70.42
74794;BME280;63320;50.768;6.724;2023-07-31T11:21:33;99553.28;;;19.58;71.63
74794;BME280;63320;50.768;6.724;2023-07-31T11:23:59;99565.06;;;19.56;72.38
74794;BME280;63320;50.768;6.724;2023-07-31T11:26:24;99541.16;;;19.74;71.97
74794;BME280;63320;50.768;6.724;2023-07-31T11:28:50;99555.66;;;19.89;71.19
74794;BME280;63320;50.768;6.724;2023-07-31T11:31:16;99546.28;;;19.85;70.98
74794;BME280;63320;50.768;6.724;2023-07-31T11:33:42;99542.00;;;19.92;70.14
74794;BME280;63320;50.768;6.724;2023-07-31T11:36:15;99552.88;;;20.26;68.64
74794;BME280;63320;50.768;6.724;2023-07-31T11:38:41;99538.00;;;20.06;70.07
74794;BME280;63320;50.768;6.724;2023-07-31T11:41:06;99528.38;;;20.31;69.21
74794;BME280;63320;50.768;6.724;2023-07-31T11:43:31;99539.41;;;20.63;68.12
74794;BME280;63320;50.768;6.724;2023-07-31T11:45:58;99526.41;;;20.68;67.77
74794;BME280;63320;50.768;6.724;2023-07-31T11:48:24;99524.47;;;20.79;67.65
74794;BME280;63320;50.768;6.724;2023-07-31T11:50:51;99540.59;;;20.69;67.56
74794;BME280;63320;50.768;6.724;2023-07-31T11:53:20;99532.59;;;20.69;67.95
74794;BME280;63320;50.768;6.724;2023-07-31T11:55:47;99527.94;;;20.53;68.48
74794;BME280;63320;50.768;6.724;2023-07-31T11:58:13;99527.25;;;20.51;69.71
74794;BME280;63320;50.768;6.724;2023-07-31T12:00:40;99543.78;;;20.37;68.75
74794;BME280;63320;50.768;6.724;2023-07-31T12:03:05;99512.91;;;20.52;69.78
74794;BME280;63320;50.768;6.724;2023-07-31T12:05:32;99499.06;;;20.75;68.77
74794;BME280;63320;50.768;6.724;2023-07-31T12:07:58;99547.25;;;20.47;68.61
74794;BME280;63320;50.768;6.724;2023-07-31T12:10:26;99520.00;;;20.43;68.90
74794;BME280;63320;50.768;6.724;2023-07-31T12:12:56;99545.50;;;19.92;69.88
74794;BME280;63320;50.768;6.724;2023-07-31T12:15:21;99530.38;;;20.11;70.71
74794;BME280;63320;50.768;6.724;2023-07-31T12:17:47;99526.25;;;20.16;69.92
74794;BME280;63320;50.768;6.724;2023-07-31T12:20:13;99543.31;;;20.06;70.72
74794;BME280;63320;50.768;6.724;2023-07-31T12:22:38;99540.78;;;19.86;70.69
74794;BME280;63320;50.768;6.724;2023-07-31T12:25:04;99519.28;;;19.88;70.81
74794;BME280;63320;50.768;6.724;2023-07-31T12:27:32;99557.22;;;20.09;70.03
74794;BME280;63320;50.768;6.724;2023-07-31T12:29:58;99543.88;;;20.09;70.18
74794;BME280;63320;50.768;6.724;2023-07-31T12:32:24;99514.66;;;20.08;70.18
74794;BME280;63320;50.768;6.724;2023-07-31T12:34:50;99522.59;;;20.17;69.66
74794;BME280;63320;50.768;6.724;2023-07-31T12:37:15;99535.47;;;20.04;69.15
74794;BME280;63320;50.768;6.724;2023-07-31T12:39:41;99540.69;;;20.24;69.38
74794;BME280;63320;50.768;6.724;2023-07-31T12:42:06;99541.66;;;20.40;69.27
74794;BME280;63320;50.768;6.724;2023-07-31T12:44:33;99542.94;;;20.36;68.91
74794;BME280;63320;50.768;6.724;2023-07-31T12:46:58;99516.56;;;20.33;69.33
74794;BME280;63320;50.768;6.724;2023-07-31T12:49:24;99519.09;;;20.35;68.68
74794;BME280;63320;50.768;6.724;2023-07-31T12:51:49;99514.19;;;20.30;68.88
74794;BME280;63320;50.768;6.724;2023-07-31T12:54:14;99514.88;;;20.32;68.56